createdAt,value
2019-02-28T03:08:01.419Z,24
2019-02-28T03:08:43.363Z,24
2019-02-28T03:09:33.386Z,24
2019-02-28T03:10:23.916Z,24
2019-02-28T03:11:13.481Z,24
2019-02-28T03:12:03.277Z,24
2019-02-28T03:12:52.710Z,24
2019-02-28T03:13:48.129Z,24
2019-02-28T03:14:32.641Z,24
2019-02-28T03:15:30.604Z,24
2019-02-28T03:16:13.674Z,24
2019-02-28T03:17:12.667Z,24
2019-02-28T03:17:53.665Z,24
2019-02-28T03:18:43.451Z,24
2019-02-28T03:19:38.968Z,23.9
2019-02-28T03:20:23.544Z,24
2019-02-28T03:21:19.246Z,23.9
2019-02-28T03:22:03.976Z,23.9
2019-02-28T03:22:53.683Z,23.9
2019-02-28T03:23:43.901Z,24
2019-02-28T03:24:33.855Z,23.9
2019-02-28T03:25:31.964Z,23.9
2019-02-28T03:26:14.304Z,23.9
2019-02-28T03:27:04.182Z,23.9
2019-02-28T03:28:00.537Z,23.9
2019-02-28T03:28:44.375Z,23.9
2019-02-28T03:29:34.412Z,23.9
2019-02-28T03:30:37.493Z,23.9
2019-02-28T03:31:19.386Z,23.9
2019-02-28T03:32:04.449Z,23.9
2019-02-28T03:32:55.095Z,23.9
2019-02-28T03:33:45.302Z,23.9
2019-02-28T03:34:35.215Z,23.9
2019-02-28T03:35:25.469Z,23.9
2019-02-28T03:36:20.487Z,23.9
2019-02-28T03:37:05.320Z,23.9
2019-02-28T03:37:55.060Z,23.9
2019-02-28T03:38:53.710Z,23.9
2019-02-28T03:39:34.614Z,23.9
2019-02-28T03:40:25.177Z,23.9
2019-02-28T03:41:21.940Z,23.9
2019-02-28T03:42:05.050Z,23.9
2019-02-28T03:42:55.768Z,23.9
2019-02-28T03:43:48.170Z,23.9
2019-02-28T03:44:35.734Z,23.9
2019-02-28T03:45:33.641Z,23.9
2019-02-28T03:46:15.535Z,23.9
2019-02-28T03:47:05.381Z,23.9
2019-02-28T03:48:03.880Z,23.9
2019-02-28T03:48:45.474Z,23.9
2019-02-28T03:49:35.827Z,23.9
2019-02-28T03:50:27.120Z,23.9
2019-02-28T03:51:16.263Z,23.9
2019-02-28T03:52:11.130Z,23.9
2019-02-28T03:52:56.044Z,23.9
2019-02-28T03:53:46.160Z,23.9
2019-02-28T03:54:36.202Z,23.9
2019-02-28T03:55:26.466Z,23.9
2019-02-28T03:56:19.768Z,23.9
2019-02-28T03:57:06.627Z,23.8
2019-02-28T03:57:55.848Z,23.9
2019-02-28T03:58:46.449Z,23.9
2019-02-28T03:59:36.501Z,23.9
2019-02-28T04:00:35.766Z,23.9
2019-02-28T04:01:16.759Z,23.8
2019-02-28T04:02:06.561Z,23.8
2019-02-28T04:03:02.589Z,23.8
2019-02-28T04:03:46.536Z,23.8
2019-02-28T04:04:37.129Z,23.8
2019-02-28T04:05:32.074Z,23.8
2019-02-28T04:06:16.764Z,23.8
2019-02-28T04:07:06.788Z,23.8
2019-02-28T04:07:58.824Z,23.8
2019-02-28T04:08:47.138Z,23.8
2019-02-28T04:09:43.678Z,23.8
2019-02-28T04:10:27.341Z,23.8
2019-02-28T04:11:17.345Z,23.8
2019-02-28T04:12:12.771Z,23.8
2019-02-28T04:12:57.190Z,23.8
2019-02-28T04:13:47.762Z,23.8
2019-02-28T04:14:37.707Z,23.8
2019-02-28T04:15:27.634Z,23.8
2019-02-28T04:16:17.112Z,23.8
2019-02-28T04:17:07.724Z,23.8
2019-02-28T04:17:57.271Z,23.8
2019-02-28T04:18:50.834Z,23.8
2019-02-28T04:19:37.888Z,23.8
2019-02-28T04:20:27.930Z,23.8
2019-02-28T04:21:18.265Z,23.8
2019-02-28T04:22:07.795Z,23.8
2019-02-28T04:23:04.275Z,23.8
2019-02-28T04:23:48.170Z,23.8
2019-02-28T04:24:37.662Z,23.8
2019-02-28T04:25:28.818Z,23.8
2019-02-28T04:26:18.335Z,23.8
2019-02-28T04:27:12.139Z,23.8
2019-02-28T04:27:58.184Z,23.8
2019-02-28T04:28:56.379Z,23.8
2019-02-28T04:29:38.292Z,23.8
2019-02-28T04:30:28.944Z,23.8
2019-02-28T04:31:24.288Z,23.8
2019-02-28T04:32:08.469Z,23.8
2019-02-28T04:33:05.479Z,23.8
2019-02-28T04:33:48.830Z,23.8
2019-02-28T04:34:38.909Z,23.8
2019-02-28T04:35:29.888Z,23.8
2019-02-28T04:36:19.086Z,23.8
2019-02-28T04:37:13.515Z,23.8
2019-02-28T04:37:59.423Z,23.8
2019-02-28T04:38:51.660Z,23.8
2019-02-28T04:39:38.954Z,23.7
2019-02-28T04:40:31.289Z,23.8
2019-02-28T04:41:19.363Z,23.7
2019-02-28T04:42:10.194Z,23.7
2019-02-28T04:42:59.440Z,23.7
2019-02-28T04:43:48.726Z,23.7
2019-02-28T04:44:39.546Z,23.8
2019-02-28T04:45:30.683Z,23.7
2019-02-28T04:46:19.649Z,23.7
2019-02-28T04:47:10.768Z,23.7
2019-02-28T04:47:59.011Z,23.7
2019-02-28T04:48:52.288Z,23.7
2019-02-28T04:49:39.419Z,23.7
2019-02-28T04:50:35.588Z,23.7
2019-02-28T04:51:19.243Z,23.7
2019-02-28T04:52:13.398Z,23.7
2019-02-28T04:53:00.164Z,23.7
2019-02-28T04:53:55.205Z,23.7
2019-02-28T04:54:39.951Z,23.7
2019-02-28T04:55:37.146Z,23.7
2019-02-28T04:56:20.052Z,23.7
2019-02-28T04:57:10.676Z,23.7
2019-02-28T04:58:00.761Z,23.7
2019-02-28T04:58:50.510Z,23.7
2019-02-28T04:59:40.848Z,23.7
2019-02-28T05:00:30.629Z,23.7
2019-02-28T05:01:20.963Z,23.7
2019-02-28T05:02:10.730Z,23.6
2019-02-28T05:03:01.060Z,23.6
2019-02-28T05:03:52.633Z,23.7
2019-02-28T05:04:40.665Z,23.7
2019-02-28T05:05:31.257Z,23.6
2019-02-28T05:06:25.215Z,23.6
2019-02-28T05:07:11.080Z,23.6
2019-02-28T05:08:07.638Z,23.6
2019-02-28T05:08:51.067Z,23.6
2019-02-28T05:09:40.513Z,23.6
2019-02-28T05:10:31.312Z,23.6
2019-02-28T05:11:21.428Z,23.6
2019-02-28T05:12:11.709Z,23.6
2019-02-28T05:13:01.480Z,23.6
2019-02-28T05:13:53.632Z,23.6
2019-02-28T05:14:40.837Z,23.6
2019-02-28T05:15:31.652Z,23.6
2019-02-28T05:16:21.722Z,23.6
2019-02-28T05:17:10.977Z,23.6
2019-02-28T05:18:00.434Z,23.6
2019-02-28T05:18:51.877Z,23.6
2019-02-28T05:19:42.219Z,23.6
2019-02-28T05:20:34.335Z,23.6
2019-02-28T05:21:23.894Z,23.6
2019-02-28T05:22:11.825Z,23.6
2019-02-28T05:23:06.289Z,23.6
2019-02-28T05:23:52.244Z,23.6
2019-02-28T05:24:46.809Z,23.6
2019-02-28T05:25:32.617Z,23.6
2019-02-28T05:26:27.946Z,23.6
2019-02-28T05:27:12.151Z,23.6
2019-02-28T05:28:02.229Z,23.6
2019-02-28T05:28:52.849Z,23.6
2019-02-28T05:29:46.957Z,23.6
2019-02-28T05:30:32.782Z,23.6
2019-02-28T05:31:28.274Z,23.6
2019-02-28T05:32:12.793Z,23.6
2019-02-28T05:33:02.851Z,23.6
2019-02-28T05:33:52.901Z,23.6
2019-02-28T05:34:42.983Z,23.6
2019-02-28T05:35:33.034Z,23.6
2019-02-28T05:36:23.087Z,23.6
2019-02-28T05:37:16.829Z,23.6
2019-02-28T05:38:03.217Z,23.6
2019-02-28T05:38:59.521Z,23.6
2019-02-28T05:39:45.403Z,23.5
2019-02-28T05:40:33.374Z,23.6
2019-02-28T05:41:23.723Z,23.6
2019-02-28T05:42:13.226Z,23.5
2019-02-28T05:43:03.880Z,23.5
2019-02-28T05:43:53.318Z,23.5
2019-02-28T05:44:44.776Z,23.5
2019-02-28T05:45:33.955Z,23.5
2019-02-28T05:46:28.471Z,23.6
2019-02-28T05:47:13.558Z,23.5
2019-02-28T05:48:07.445Z,23.5
2019-02-28T05:48:53.716Z,23.5
2019-02-28T05:49:45.045Z,23.5
2019-02-28T05:50:33.768Z,23.5
2019-02-28T05:51:27.988Z,23.5
2019-02-28T05:52:14.153Z,23.5
2019-02-28T05:53:11.925Z,23.5
2019-02-28T05:53:54.575Z,23.5
2019-02-28T05:54:47.180Z,23.5
2019-02-28T05:55:35.615Z,23.5
2019-02-28T05:56:24.142Z,23.5
2019-02-28T05:57:14.757Z,23.5
2019-02-28T05:58:03.520Z,23.5
2019-02-28T05:58:56.477Z,23.5
2019-02-28T05:59:44.935Z,23.5
2019-02-28T06:00:41.650Z,23.5
2019-02-28T06:01:24.839Z,23.5
2019-02-28T06:02:14.837Z,23.5
2019-02-28T06:03:06.962Z,23.5
2019-02-28T06:03:54.934Z,23.4
2019-02-28T06:05:52.284Z,23.4
2019-02-28T06:06:42.624Z,23.4
2019-02-28T06:07:33.674Z,23.4
2019-02-28T06:08:22.462Z,23.4
2019-02-28T06:09:18.167Z,23.4
2019-02-28T06:10:02.979Z,23.4
2019-02-28T06:11:01.647Z,23.4
2019-02-28T06:11:43.943Z,23.4
2019-02-28T06:12:32.982Z,23.4
2019-02-28T06:13:23.311Z,23.4
2019-02-28T06:14:13.375Z,23.4
2019-02-28T06:15:07.510Z,23.4
2019-02-28T06:15:53.512Z,23.4
2019-02-28T06:16:50.213Z,23.4
2019-02-28T06:17:33.761Z,23.4
2019-02-28T06:18:33.260Z,23.4
2019-02-28T06:19:13.432Z,23.4
2019-02-28T06:20:04.003Z,23.4
2019-02-28T06:20:56.227Z,23.4
2019-02-28T06:21:43.858Z,23.4
2019-02-28T06:22:39.575Z,23.4
2019-02-28T06:23:23.742Z,23.4
2019-02-28T06:24:17.239Z,23.4
2019-02-28T06:25:04.550Z,23.4
2019-02-28T06:26:02.289Z,23.4
2019-02-28T06:26:44.497Z,23.4
2019-02-28T06:27:52.697Z,23.4
2019-02-28T06:28:27.598Z,23.4
2019-02-28T06:29:14.667Z,23.4
2019-02-28T06:30:04.519Z,23.4
2019-02-28T06:30:54.772Z,23.4
2019-02-28T06:31:50.659Z,23.4
2019-02-28T06:32:34.369Z,23.4
2019-02-28T06:33:24.934Z,23.4
2019-02-28T06:34:14.759Z,23.4
2019-02-28T06:35:04.829Z,23.4
2019-02-28T06:35:57.844Z,23.4
2019-02-28T06:36:45.174Z,23.4
2019-02-28T06:37:41.187Z,23.4
2019-02-28T06:38:25.024Z,23.4
2019-02-28T06:39:14.933Z,23.4
2019-02-28T06:40:04.597Z,23.4
2019-02-28T06:40:54.621Z,23.4
2019-02-28T06:41:44.989Z,23.4
2019-02-28T06:42:35.340Z,23.4
2019-02-28T06:43:25.631Z,23.4
2019-02-28T06:44:15.419Z,23.3
2019-02-28T06:45:06.409Z,23.4
2019-02-28T06:45:55.238Z,23.3
2019-02-28T06:46:45.027Z,23.3
2019-02-28T06:47:35.661Z,23.4
2019-02-28T06:48:30.558Z,23.3
2019-02-28T06:49:16.056Z,23.3
2019-02-28T06:50:05.838Z,23.3
2019-02-28T06:50:55.348Z,23.3
2019-02-28T06:51:51.997Z,23.3
2019-02-28T06:52:36.346Z,23.3
2019-02-28T06:53:26.023Z,23.3
2019-02-28T06:54:15.550Z,23.3
2019-02-28T06:55:06.451Z,23.3
2019-02-28T06:55:56.483Z,23.3
2019-02-28T06:56:46.568Z,23.3
2019-02-28T06:57:37.475Z,23.3
2019-02-28T06:58:26.703Z,23.3
2019-02-28T06:59:15.875Z,23.3
2019-02-28T07:00:06.233Z,23.3
2019-02-28T07:00:56.859Z,23.3
2019-02-28T07:01:46.596Z,23.3
2019-02-28T07:02:35.891Z,23.3
2019-02-28T07:03:27.000Z,23.3
2019-02-28T07:05:52.825Z,23.3
2019-02-28T07:06:43.155Z,23.3
2019-02-28T07:07:32.615Z,23.3
2019-02-28T07:08:32.785Z,23.3
2019-02-28T07:09:13.280Z,23.3
2019-02-28T07:10:03.428Z,23.3
2019-02-28T07:10:53.492Z,23.3
2019-02-28T07:11:43.164Z,23.3
2019-02-28T07:12:36.943Z,23.3
2019-02-28T07:13:23.317Z,23.3
2019-02-28T07:14:17.865Z,23.3
2019-02-28T07:15:03.731Z,23.3
2019-02-28T07:16:00.468Z,23.3
2019-02-28T07:16:43.624Z,23.3
2019-02-28T07:17:33.847Z,23.3
2019-02-28T07:18:24.401Z,23.3
2019-02-28T07:19:13.684Z,23.3
2019-02-28T07:20:07.382Z,23.3
2019-02-28T07:20:54.130Z,23.3
2019-02-28T07:21:48.144Z,23.3
2019-02-28T07:22:33.907Z,23.3
2019-02-28T07:23:32.949Z,23.3
2019-02-28T07:24:14.300Z,23.3
2019-02-28T07:25:04.387Z,23.3
2019-02-28T07:25:56.377Z,23.3
2019-02-28T07:26:43.919Z,23.3
2019-02-28T07:27:34.232Z,23.3
2019-02-28T07:28:24.684Z,23.3
2019-02-28T07:29:16.439Z,23.3
2019-02-28T07:30:04.951Z,23.3
2019-02-28T07:30:55.234Z,23.2
2019-02-28T07:31:44.848Z,23.2
2019-02-28T07:32:38.951Z,23.2
2019-02-28T07:33:24.721Z,23.2
2019-02-28T07:34:24.409Z,23.2
2019-02-28T07:35:04.851Z,23.2
2019-02-28T07:35:55.091Z,23.2
2019-02-28T07:36:49.226Z,23.2
2019-02-28T07:37:35.202Z,23.2
2019-02-28T07:38:31.783Z,23.2
2019-02-28T07:39:15.099Z,23.2
2019-02-28T07:40:05.446Z,23.2
2019-02-28T07:40:55.438Z,23.2
2019-02-28T07:41:45.869Z,23.2
2019-02-28T07:42:42.301Z,23.2
2019-02-28T07:43:25.308Z,23.2
2019-02-28T07:44:22.364Z,23.2
2019-02-28T07:45:05.433Z,23.2
2019-02-28T07:45:56.651Z,23.2
2019-02-28T07:46:47.032Z,23.2
2019-02-28T07:47:35.910Z,23.2
2019-02-28T07:48:33.675Z,23.2
2019-02-28T07:49:15.469Z,23.1
2019-02-28T07:50:12.063Z,23.2
2019-02-28T07:50:55.308Z,23.2
2019-02-28T07:51:45.603Z,23.2
2019-02-28T07:52:38.083Z,23.1
2019-02-28T07:53:26.365Z,23.2
2019-02-28T07:54:22.895Z,23.1
2019-02-28T07:55:05.938Z,23.1
2019-02-28T07:55:56.478Z,23.1
2019-02-28T07:56:48.295Z,23.1
2019-02-28T07:57:36.297Z,23.1
2019-02-28T07:58:34.900Z,23.1
2019-02-28T07:59:16.120Z,23.1
2019-02-28T08:00:06.282Z,23.1
2019-02-28T08:00:58.036Z,23.1
2019-02-28T08:01:46.580Z,23.1
2019-02-28T08:02:43.678Z,23.1
2019-02-28T08:03:26.714Z,23.1
2019-02-28T08:04:23.027Z,23.1
2019-02-28T08:05:07.185Z,23.1
2019-02-28T08:05:57.139Z,23.1
2019-02-28T08:06:47.197Z,23.1
2019-02-28T08:07:36.993Z,23.1
2019-02-28T08:08:31.025Z,23.1
2019-02-28T08:09:17.054Z,23.1
2019-02-28T08:10:07.514Z,23.1
2019-02-28T08:10:57.466Z,23.1
2019-02-28T08:11:46.979Z,23.1
2019-02-28T08:12:37.591Z,23.1
2019-02-28T08:13:27.644Z,23.1
2019-02-28T08:14:17.812Z,23.1
2019-02-28T08:15:07.501Z,23.1
2019-02-28T08:16:03.798Z,23.1
2019-02-28T08:16:47.614Z,23.1
2019-02-28T08:17:46.531Z,23.1
2019-02-28T08:18:28.000Z,23.1
2019-02-28T08:19:18.036Z,23.1
2019-02-28T08:20:07.831Z,23.1
2019-02-28T08:20:58.181Z,23.1
2019-02-28T08:21:54.426Z,23.1
2019-02-28T08:22:37.446Z,23.1
2019-02-28T08:23:33.046Z,23.1
2019-02-28T08:24:18.078Z,23.1
2019-02-28T08:25:11.723Z,23.1
2019-02-28T08:25:58.233Z,23.1
2019-02-28T08:26:54.287Z,23.1
2019-02-28T08:27:37.806Z,23.1
2019-02-28T08:28:36.946Z,23.1
2019-02-28T08:29:18.709Z,23.1
2019-02-28T08:30:08.850Z,23.1
2019-02-28T08:30:59.993Z,23.1
2019-02-28T08:31:48.603Z,23
2019-02-28T08:32:48.371Z,23.1
2019-02-28T08:33:29.003Z,23
2019-02-28T08:34:26.018Z,23.1
2019-02-28T08:35:09.143Z,23
2019-02-28T08:35:59.184Z,23.1
2019-02-28T08:36:51.840Z,23
2019-02-28T08:37:39.005Z,23.1
2019-02-28T08:38:36.356Z,23.1
2019-02-28T08:39:20.478Z,23
2019-02-28T08:40:09.236Z,23
2019-02-28T08:40:59.510Z,23
2019-02-28T08:41:51.565Z,23
2019-02-28T08:42:43.482Z,23
2019-02-28T08:43:31.805Z,23
2019-02-28T08:44:26.288Z,23
2019-02-28T08:45:12.305Z,23
2019-02-28T08:45:59.865Z,23
2019-02-28T08:46:51.589Z,23
2019-02-28T08:47:40.023Z,23
2019-02-28T08:48:38.374Z,23
2019-02-28T08:49:19.807Z,23
2019-02-28T08:50:10.127Z,23
2019-02-28T08:51:00.849Z,23
2019-02-28T08:51:50.260Z,23
2019-02-28T08:52:45.906Z,23
2019-02-28T08:53:30.382Z,23
2019-02-28T08:54:27.534Z,23
2019-02-28T08:55:12.952Z,23
2019-02-28T08:56:00.074Z,22.9
2019-02-28T08:56:53.997Z,23
2019-02-28T08:57:40.092Z,23
2019-02-28T08:58:29.884Z,23
2019-02-28T08:59:26.799Z,22.9
2019-02-28T09:00:10.261Z,22.9
2019-02-28T09:01:00.591Z,22.9
2019-02-28T09:01:50.647Z,22.9
2019-02-28T09:02:41.122Z,22.9
2019-02-28T09:03:31.804Z,22.9
2019-02-28T09:04:21.082Z,22.9
2019-02-28T09:05:11.161Z,22.9
2019-02-28T09:06:09.789Z,22.9
2019-02-28T09:06:50.708Z,22.9
2019-02-28T09:07:41.374Z,22.9
2019-02-28T09:08:31.132Z,22.9
2019-02-28T09:09:21.172Z,22.9
2019-02-28T09:10:16.646Z,22.9
2019-02-28T09:11:01.548Z,22.9
2019-02-28T09:11:59.710Z,22.9
2019-02-28T09:12:41.667Z,22.9
2019-02-28T09:13:31.729Z,22.9
2019-02-28T09:14:22.408Z,22.9
2019-02-28T09:15:11.831Z,22.9
2019-02-28T09:16:07.472Z,22.9
2019-02-28T09:16:51.674Z,22.9
2019-02-28T09:17:41.975Z,22.9
2019-02-28T09:18:31.800Z,22.9
2019-02-28T09:19:21.548Z,22.9
2019-02-28T09:20:14.560Z,22.9
2019-02-28T09:21:02.231Z,22.9
2019-02-28T09:21:57.403Z,22.9
2019-02-28T09:22:41.813Z,22.9
2019-02-28T09:23:38.437Z,22.9
2019-02-28T09:24:22.186Z,22.9
2019-02-28T09:25:12.244Z,22.9
2019-02-28T09:26:03.990Z,22.9
2019-02-28T09:26:52.642Z,22.9
2019-02-28T09:27:43.687Z,22.9
2019-02-28T09:28:32.482Z,22.9
2019-02-28T09:29:26.222Z,22.9
2019-02-28T09:30:12.850Z,22.9
2019-02-28T09:31:09.662Z,22.9
2019-02-28T09:31:52.970Z,22.9
2019-02-28T09:32:45.184Z,22.9
2019-02-28T09:33:33.090Z,22.9
2019-02-28T09:34:22.095Z,22.9
2019-02-28T09:35:18.852Z,22.9
2019-02-28T09:36:03.017Z,22.9
2019-02-28T09:37:00.275Z,22.9
2019-02-28T09:37:43.095Z,22.8
2019-02-28T09:38:33.454Z,22.8
2019-02-28T09:39:23.999Z,22.9
2019-02-28T09:40:13.557Z,22.9
2019-02-28T09:41:08.773Z,22.9
2019-02-28T09:41:53.652Z,22.9
2019-02-28T09:42:51.980Z,22.9
2019-02-28T09:43:33.506Z,22.9
2019-02-28T09:44:23.846Z,22.8
2019-02-28T09:45:13.626Z,22.8
2019-02-28T09:46:03.667Z,22.8
2019-02-28T09:46:55.809Z,22.8
2019-02-28T09:47:44.037Z,22.8
2019-02-28T09:48:41.154Z,22.8
2019-02-28T09:49:23.879Z,22.8
2019-02-28T09:50:13.919Z,22.8
2019-02-28T09:51:03.726Z,22.8
2019-02-28T09:51:54.329Z,22.8
2019-02-28T09:52:46.328Z,22.8
2019-02-28T09:53:34.209Z,22.8
2019-02-28T09:54:28.806Z,22.8
2019-02-28T09:55:14.584Z,22.8
2019-02-28T09:56:10.704Z,22.8
2019-02-28T09:56:54.760Z,22.8
2019-02-28T09:57:44.738Z,22.8
2019-02-28T09:58:34.524Z,22.8
2019-02-28T09:59:24.611Z,22.8
2019-02-28T10:00:16.781Z,22.8
2019-02-28T10:01:05.012Z,22.8
2019-02-28T10:02:11.996Z,22.8
2019-02-28T10:02:48.927Z,22.8
2019-02-28T10:03:36.546Z,22.8
2019-02-28T10:04:31.258Z,22.8
2019-02-28T10:06:58.331Z,22.8
2019-02-28T10:07:42.458Z,22.8
2019-02-28T10:08:39.318Z,22.8
2019-02-28T10:09:23.068Z,22.8
2019-02-28T10:10:22.448Z,22.8
2019-02-28T10:11:17.560Z,22.8
2019-02-28T10:11:52.152Z,22.8
2019-02-28T10:12:46.811Z,22.8
2019-02-28T10:13:35.230Z,22.8
2019-02-28T10:14:22.376Z,22.8
2019-02-28T10:15:13.593Z,22.8
2019-02-28T10:16:02.503Z,22.8
2019-02-28T10:16:57.277Z,22.8
2019-02-28T10:17:45.650Z,22.8
2019-02-28T10:18:40.600Z,22.8
2019-02-28T10:19:25.740Z,22.8
2019-02-28T10:20:13.262Z,22.8
2019-02-28T10:21:06.105Z,22.8
2019-02-28T10:21:56.676Z,22.8
2019-02-28T10:22:50.107Z,22.8
2019-02-28T10:23:33.740Z,22.8
2019-02-28T10:24:31.389Z,22.8
2019-02-28T10:25:14.145Z,22.8
2019-02-28T10:26:04.227Z,22.8
2019-02-28T10:26:56.467Z,22.7
2019-02-28T10:27:44.044Z,22.8
2019-02-28T10:28:34.422Z,22.8
2019-02-28T10:29:24.429Z,22.7
2019-02-28T10:30:33.270Z,22.7
2019-02-28T10:31:04.267Z,22.7
2019-02-28T10:31:54.597Z,22.7
2019-02-28T10:32:47.949Z,22.7
2019-02-28T10:33:34.729Z,22.7
2019-02-28T10:34:30.682Z,22.7
2019-02-28T10:35:14.292Z,22.7
2019-02-28T10:36:04.614Z,22.7
2019-02-28T10:36:54.942Z,22.7
2019-02-28T10:37:44.989Z,22.7
2019-02-28T10:38:37.787Z,22.7
2019-02-28T10:39:24.861Z,22.7
2019-02-28T10:40:21.603Z,22.7
2019-02-28T10:41:05.264Z,22.7
2019-02-28T10:41:55.296Z,22.7
2019-02-28T10:42:45.856Z,22.7
2019-02-28T10:43:35.394Z,22.7
2019-02-28T10:44:32.341Z,22.7
2019-02-28T10:45:14.958Z,22.7
2019-02-28T10:46:05.318Z,22.7
2019-02-28T10:46:58.863Z,22.7
2019-02-28T10:47:45.402Z,22.7
2019-02-28T10:48:53.023Z,22.7
2019-02-28T10:49:29.192Z,22.6
2019-02-28T10:50:15.863Z,22.6
2019-02-28T10:51:18.237Z,22.7
2019-02-28T10:51:55.126Z,22.6
2019-02-28T10:52:45.804Z,22.6
2019-02-28T10:53:41.729Z,22.6
2019-02-28T10:54:26.178Z,22.6
2019-02-28T10:55:16.246Z,22.6
2019-02-28T10:56:06.253Z,22.6
2019-02-28T10:56:56.306Z,22.6
2019-02-28T10:57:46.355Z,22.6
2019-02-28T10:58:35.859Z,22.6
2019-02-28T10:59:29.115Z,22.6
2019-02-28T11:00:16.248Z,22.6
2019-02-28T11:01:12.862Z,22.6
2019-02-28T11:01:56.661Z,22.6
2019-02-28T11:02:46.692Z,22.6
2019-02-28T11:03:37.647Z,22.6
2019-02-28T11:04:30.163Z,22.6
2019-02-28T11:05:23.120Z,22.6
2019-02-28T11:06:07.040Z,22.6
2019-02-28T11:06:59.289Z,22.6
2019-02-28T11:07:49.103Z,22.6
2019-02-28T11:08:37.120Z,22.6
2019-02-28T11:09:29.855Z,22.6
2019-02-28T11:10:17.240Z,22.6
2019-02-28T11:11:13.728Z,22.6
2019-02-28T11:11:57.342Z,22.6
2019-02-28T11:12:47.425Z,22.6
2019-02-28T11:13:36.892Z,22.6
2019-02-28T11:14:27.272Z,22.6
2019-02-28T11:15:18.794Z,22.6
2019-02-28T11:16:07.354Z,22.6
2019-02-28T11:17:04.263Z,22.6
2019-02-28T11:17:49.046Z,22.6
2019-02-28T11:18:42.783Z,22.6
2019-02-28T11:19:27.571Z,22.6
2019-02-28T11:20:30.317Z,22.6
2019-02-28T11:21:07.679Z,22.6
2019-02-28T11:21:58.004Z,22.6
2019-02-28T11:22:47.800Z,22.6
2019-02-28T11:23:37.584Z,22.6
2019-02-28T11:24:31.496Z,22.6
2019-02-28T11:25:17.994Z,22.6
2019-02-28T11:26:14.408Z,22.6
2019-02-28T11:26:59.958Z,22.6
2019-02-28T11:27:47.599Z,22.6
2019-02-28T11:28:38.466Z,22.6
2019-02-28T11:29:28.253Z,22.6
2019-02-28T11:30:18.059Z,22.6
2019-02-28T11:31:08.424Z,22.6
2019-02-28T11:32:01.467Z,22.6
2019-02-28T11:32:48.489Z,22.6
2019-02-28T11:33:44.088Z,22.6
2019-02-28T11:34:28.908Z,22.6
2019-02-28T11:35:25.006Z,22.6
2019-02-28T11:36:10.616Z,22.5
2019-02-28T11:36:58.779Z,22.6
2019-02-28T11:37:50.181Z,22.6
2019-02-28T11:38:38.888Z,22.5
2019-02-28T11:39:37.216Z,22.5
2019-02-28T11:40:19.275Z,22.5
2019-02-28T11:41:09.317Z,22.5
2019-02-28T11:42:01.259Z,22.5
2019-02-28T11:42:49.470Z,22.5
2019-02-28T11:43:42.630Z,22.5
2019-02-28T11:44:29.278Z,22.5
2019-02-28T11:45:28.908Z,22.5
2019-02-28T11:46:09.671Z,22.5
2019-02-28T11:46:58.921Z,22.5
2019-02-28T11:47:49.568Z,22.5
2019-02-28T11:48:39.862Z,22.5
2019-02-28T11:49:33.096Z,22.5
2019-02-28T11:50:19.665Z,22.5
2019-02-28T11:51:09.747Z,22.5
2019-02-28T11:52:00.072Z,22.5
2019-02-28T11:52:49.659Z,22.5
2019-02-28T11:53:43.927Z,22.5
2019-02-28T11:54:29.949Z,22.5
2019-02-28T11:55:25.694Z,22.5
2019-02-28T11:56:09.527Z,22.5
2019-02-28T11:57:09.150Z,22.5
2019-02-28T11:57:50.192Z,22.4
2019-02-28T11:58:40.544Z,22.5
2019-02-28T11:59:30.027Z,22.5
2019-02-28T12:00:20.645Z,22.4
2019-02-28T12:01:14.467Z,22.5
2019-02-28T12:02:00.474Z,22.4
2019-02-28T12:03:06.650Z,22.4
2019-02-28T12:03:41.040Z,22.4
2019-02-28T12:04:30.917Z,22.4
2019-02-28T12:06:57.347Z,22.4
2019-02-28T12:07:42.885Z,22.4
2019-02-28T12:08:32.927Z,22.4
2019-02-28T12:09:24.351Z,22.4
2019-02-28T12:10:13.048Z,22.4
2019-02-28T12:11:06.791Z,22.4
2019-02-28T12:11:53.156Z,22.4
2019-02-28T12:12:49.324Z,22.4
2019-02-28T12:13:33.298Z,22.4
2019-02-28T12:14:22.816Z,22.4
2019-02-28T12:15:13.381Z,22.4
2019-02-28T12:16:03.436Z,22.4
2019-02-28T12:16:57.418Z,22.4
2019-02-28T12:17:43.256Z,22.4
2019-02-28T12:18:39.452Z,22.4
2019-02-28T12:19:23.116Z,22.4
2019-02-28T12:20:13.756Z,22.4
2019-02-28T12:21:08.586Z,22.4
2019-02-28T12:21:53.548Z,22.4
2019-02-28T12:22:52.829Z,22.4
2019-02-28T12:23:32.854Z,22.4
2019-02-28T12:24:23.742Z,22.4
2019-02-28T12:25:14.068Z,22.4
2019-02-28T12:26:04.165Z,22.4
2019-02-28T12:26:57.373Z,22.4
2019-02-28T12:27:44.265Z,22.4
2019-02-28T12:28:40.181Z,22.4
2019-02-28T12:29:24.391Z,22.4
2019-02-28T12:30:13.828Z,22.4
2019-02-28T12:31:05.135Z,22.4
2019-02-28T12:31:53.960Z,22.4
2019-02-28T12:32:48.538Z,22.4
2019-02-28T12:33:34.077Z,22.4
2019-02-28T12:34:24.728Z,22.4
2019-02-28T12:35:14.200Z,22.4
2019-02-28T12:36:04.523Z,22.4
2019-02-28T12:36:54.600Z,22.4
2019-02-28T12:37:44.658Z,22.4
2019-02-28T12:38:35.003Z,22.4
2019-02-28T12:39:26.775Z,22.4
2019-02-28T12:40:15.300Z,22.4
2019-02-28T12:41:04.875Z,22.4
2019-02-28T12:42:00.889Z,22.4
2019-02-28T12:42:44.994Z,22.3
2019-02-28T12:43:35.367Z,22.3
2019-02-28T12:44:24.822Z,22.4
2019-02-28T12:45:15.502Z,22.3
2019-02-28T12:46:05.519Z,22.3
2019-02-28T12:46:54.994Z,22.3
2019-02-28T12:47:47.552Z,22.4
2019-02-28T12:48:35.405Z,22.3
2019-02-28T12:49:31.122Z,22.4
2019-02-28T12:50:15.796Z,22.3
2019-02-28T12:51:10.091Z,22.3
2019-02-28T12:51:55.612Z,22.3
2019-02-28T12:52:51.355Z,22.3
2019-02-28T12:53:37.052Z,22.3
2019-02-28T12:54:34.224Z,22.3
2019-02-28T12:55:15.853Z,22.3
2019-02-28T12:56:06.164Z,22.3
2019-02-28T12:56:56.234Z,22.3
2019-02-28T12:57:46.319Z,22.3
2019-02-28T12:58:45.581Z,22.3
2019-02-28T12:59:26.451Z,22.3
2019-02-28T13:00:19.806Z,22.3
2019-02-28T13:01:06.634Z,22.3
2019-02-28T13:01:56.346Z,22.3
2019-02-28T13:02:50.368Z,22.3
2019-02-28T13:03:36.470Z,22.3
2019-02-28T13:04:26.810Z,22.3
2019-02-28T13:05:20.142Z,22.3
2019-02-28T13:06:06.636Z,22.3
2019-02-28T13:07:03.466Z,22.3
2019-02-28T13:07:49.043Z,22.3
2019-02-28T13:08:42.468Z,22.3
2019-02-28T13:09:26.798Z,22.3
2019-02-28T13:10:17.190Z,22.3
2019-02-28T13:11:08.292Z,22.3
2019-02-28T13:11:57.268Z,22.3
2019-02-28T13:13:05.185Z,22.3
2019-02-28T13:13:37.460Z,22.3
2019-02-28T13:14:27.322Z,22.3
2019-02-28T13:15:18.014Z,22.3
2019-02-28T13:16:07.543Z,22.3
2019-02-28T13:17:01.893Z,22.3
2019-02-28T13:17:47.442Z,22.3
2019-02-28T13:18:44.448Z,22.3
2019-02-28T13:19:27.550Z,22.3
2019-02-28T13:20:17.606Z,22.3
2019-02-28T13:21:15.387Z,22.3
2019-02-28T13:21:57.983Z,22.3
2019-02-28T13:22:47.581Z,22.3
2019-02-28T13:23:38.241Z,22.3
2019-02-28T13:24:28.130Z,22.3
2019-02-28T13:25:25.942Z,22.3
2019-02-28T13:26:08.242Z,22.3
2019-02-28T13:26:58.069Z,22.3
2019-02-28T13:27:51.744Z,22.2
2019-02-28T13:28:38.483Z,22.2
2019-02-28T13:29:35.930Z,22.3
2019-02-28T13:30:18.723Z,22.2
2019-02-28T13:31:08.645Z,22.2
2019-02-28T13:32:06.099Z,22.2
2019-02-28T13:32:48.713Z,22.2
2019-02-28T13:33:38.896Z,22.2
2019-02-28T13:34:33.919Z,22.2
2019-02-28T13:35:18.378Z,22.2
2019-02-28T13:36:08.931Z,22.2
2019-02-28T13:37:06.973Z,22.2
2019-02-28T13:37:49.408Z,22.2
2019-02-28T13:38:38.846Z,22.2
2019-02-28T13:39:36.266Z,22.2
2019-02-28T13:40:19.264Z,22.2
2019-02-28T13:41:09.177Z,22.2
2019-02-28T13:42:07.543Z,22.2
2019-02-28T13:42:49.418Z,22.2
2019-02-28T13:43:39.571Z,22.2
2019-02-28T13:44:38.181Z,22.2
2019-02-28T13:45:27.891Z,22.2
2019-02-28T13:46:09.415Z,22.2
2019-02-28T13:46:59.731Z,22.2
2019-02-28T13:47:51.545Z,22.2
2019-02-28T13:48:39.791Z,22.2
2019-02-28T13:49:29.593Z,22.2
2019-02-28T13:50:31.399Z,22.2
2019-02-28T13:51:12.924Z,22.2
2019-02-28T13:52:00.090Z,22.1
2019-02-28T13:52:54.156Z,22.2
2019-02-28T13:53:39.310Z,22.2
2019-02-28T13:54:31.405Z,22.2
2019-02-28T13:55:24.116Z,22.2
2019-02-28T13:56:10.068Z,22.1
2019-02-28T13:57:00.263Z,22.2
2019-02-28T13:57:51.458Z,22.1
2019-02-28T13:58:40.305Z,22.1
2019-02-28T13:59:35.882Z,22.1
2019-02-28T14:00:20.680Z,22.2
2019-02-28T14:01:10.398Z,22.1
2019-02-28T14:02:00.765Z,22.1
2019-02-28T14:02:50.825Z,22.1
2019-02-28T14:03:48.420Z,22.1
2019-02-28T14:04:30.890Z,22.1
2019-02-28T14:05:20.690Z,22.1
2019-02-28T14:07:52.198Z,22.1
2019-02-28T14:08:49.669Z,22.1
2019-02-28T14:09:32.844Z,22.1
2019-02-28T14:10:22.937Z,22.1
2019-02-28T14:11:15.025Z,22.1
2019-02-28T14:12:02.753Z,22.1
2019-02-28T14:13:00.406Z,22.1
2019-02-28T14:13:42.927Z,22.1
2019-02-28T14:14:33.211Z,22.1
2019-02-28T14:15:25.659Z,22.1
2019-02-28T14:16:13.045Z,22.1
2019-02-28T14:17:06.004Z,22.1
2019-02-28T14:17:53.107Z,22.1
2019-02-28T14:18:49.314Z,22.1
2019-02-28T14:19:33.244Z,22.1
2019-02-28T14:20:29.844Z,22.1
2019-02-28T14:21:13.613Z,22.1
2019-02-28T14:22:03.203Z,22.1
2019-02-28T14:22:53.201Z,22.1
2019-02-28T14:23:43.851Z,22.1